Time;durP1;ratioP1;P1;durP2;ratioP2;P2;SDS_P1;SDS_P2;PMS_P1;PMS_P2;Temp;Humidity;BMP_temperature;BMP_pressure;BME280_temperature;BME280_humidity;BME280_pressure;Samples;Min_cycle;Max_cycle;Signal;HPM_P1;HPM_P2
2023/07/15 00:01:45;;;;;;;6.70;5.80;;;;;;;17.72;96.74;100041.02;185532;1232;46095;-68
2023/07/15 00:05:49;;;;;;;5.90;4.90;;;;;;;17.71;97.33;100040.59;185537;1232;46081;-70
2023/07/15 00:09:57;;;;;;;4.50;4.10;;;;;;;17.69;97.67;100031.73;185375;1232;57456;-68
2023/07/15 00:14:02;;;;;;;5.90;5.30;;;;;;;17.68;97.52;100033.95;185529;1232;43682;-70
2023/07/15 00:19:01;;;;;;;5.40;4.90;;;;;;;17.70;98.19;100038.45;185450;1232;43695;-68
2023/07/15 00:23:18;;;;;;;6.60;6.00;;;;;;;17.71;98.52;100029.45;185560;1232;46024;-69
2023/07/15 00:27:20;;;;;;;8.20;5.00;;;;;;;17.70;98.51;100022.58;185636;1232;44581;-69
2023/07/15 00:31:23;;;;;;;8.00;6.40;;;;;;;17.68;98.46;100018.38;185519;1236;59168;-68
2023/07/15 00:35:31;;;;;;;6.30;5.80;;;;;;;17.66;99.25;100017.72;185490;1232;43451;-68
2023/07/15 00:39:32;;;;;;;6.70;5.60;;;;;;;17.63;98.71;100012.70;185485;1232;43730;-68
2023/07/15 00:44:05;;;;;;;7.50;6.40;;;;;;;17.60;98.72;100007.11;185998;1236;43729;-69
2023/07/15 00:48:17;;;;;;;5.70;5.10;;;;;;;17.53;99.67;100007.29;185795;1232;43513;-68
2023/07/15 00:52:32;;;;;;;6.60;5.30;;;;;;;17.41;99.83;100001.89;185486;1232;58030;-69
2023/07/15 00:56:37;;;;;;;5.70;5.10;;;;;;;17.21;99.95;99997.88;185630;1232;45876;-67
2023/07/15 01:00:39;;;;;;;5.90;5.30;;;;;;;17.17;100.00;99996.41;185624;1232;43846;-69
2023/07/15 01:04:47;;;;;;;11.30;5.70;;;;;;;17.11;100.00;100000.71;185715;1232;44861;-68
2023/07/15 01:08:48;;;;;;;6.80;5.40;;;;;;;17.06;100.00;99999.13;185454;1232;44904;-69
2023/07/15 01:12:50;;;;;;;7.90;5.50;;;;;;;17.06;100.00;99993.52;185741;1232;58342;-69
2023/07/15 01:16:52;;;;;;;8.30;6.20;;;;;;;17.04;100.00;99981.42;185662;1232;44481;-69
2023/07/15 01:20:58;;;;;;;6.40;5.80;;;;;;;16.98;100.00;99974.84;185567;1232;45905;-66
2023/07/15 01:25:00;;;;;;;;;;;;;;;16.96;100.00;99977.98;185495;1232;44631;-68
2023/07/15 01:29:03;;;;;;;8.40;7.20;;;;;;;16.98;100.00;99969.31;185626;1232;43291;-69
2023/07/15 01:33:08;;;;;;;9.40;6.50;;;;;;;16.93;100.00;99965.77;185523;1232;58351;-67
2023/07/15 01:37:10;;;;;;;7.70;5.80;;;;;;;16.88;100.00;99972.90;185640;1232;43497;-68
2023/07/15 01:41:13;;;;;;;8.20;6.70;;;;;;;16.86;100.00;99975.83;185515;1232;45880;-68
2023/07/15 01:45:15;;;;;;;7.30;5.20;;;;;;;16.83;100.00;99974.25;185572;1232;43726;-70
2023/07/15 01:49:19;;;;;;;8.30;6.60;;;;;;;16.81;100.00;99976.84;185762;1232;46072;-69
2023/07/15 01:53:21;;;;;;;9.70;7.20;;;;;;;16.67;100.00;99973.53;185609;1232;58552;-68
2023/07/15 01:57:33;;;;;;;9.60;7.20;;;;;;;16.53;100.00;99975.93;185704;1232;43511;-69
2023/07/15 02:01:34;;;;;;;7.10;6.10;;;;;;;16.36;100.00;99977.69;185716;1232;45870;-68
2023/07/15 02:05:37;;;;;;;7.80;7.00;;;;;;;16.18;100.00;99977.89;185652;1232;43862;-67
2023/07/15 02:09:39;;;;;;;10.70;7.00;;;;;;;16.05;100.00;99975.45;185609;1232;43681;-68
2023/07/15 02:13:46;;;;;;;10.20;7.90;;;;;;;16.01;100.00;99973.05;185852;1232;58667;-68
2023/07/15 02:17:48;;;;;;;10.50;7.10;;;;;;;15.97;100.00;99977.11;185458;1232;46180;-68
2023/07/15 02:21:51;;;;;;;10.90;8.10;;;;;;;15.96;100.00;99972.19;185714;1232;45938;-69
2023/07/15 02:25:53;;;;;;;8.40;7.60;;;;;;;16.01;100.00;99966.61;185644;1232;45971;-67
2023/07/15 02:29:55;;;;;;;12.30;8.90;;;;;;;16.14;100.00;99964.55;185611;1232;45895;-68
2023/07/15 02:33:56;;;;;;;9.50;8.30;;;;;;;16.18;100.00;99963.33;186044;1232;58478;-68
2023/07/15 02:37:58;;;;;;;15.80;8.30;;;;;;;16.13;100.00;99964.78;186060;1232;43698;-67
2023/07/15 02:42:01;;;;;;;10.20;7.60;;;;;;;16.03;100.00;99968.01;186275;1232;44877;-68
2023/07/15 02:46:04;;;;;;;9.70;8.70;;;;;;;15.96;100.00;99969.34;185741;1232;46089;-67
2023/07/15 02:50:08;;;;;;;9.20;7.50;;;;;;;15.95;100.00;99976.58;185656;1236;43904;-68
2023/07/15 02:54:19;;;;;;;8.70;7.80;;;;;;;15.96;100.00;99970.41;185840;1232;58242;-68
2023/07/15 02:58:35;;;;;;;8.20;7.00;;;;;;;15.91;100.00;99971.54;185729;1232;44516;-68
2023/07/15 03:02:38;;;;;;;8.10;7.30;;;;;;;15.82;100.00;99971.02;185537;1232;43455;-68
2023/07/15 03:06:41;;;;;;;11.60;8.80;;;;;;;15.84;100.00;99967.59;185678;1232;45273;-68
2023/07/15 03:10:45;;;;;;;13.20;9.40;;;;;;;15.79;100.00;99972.79;185665;1232;43780;-69
2023/07/15 03:28:16;;;;;;;18.90;11.00;;;;;;;15.79;100.00;99965.08;185836;1233;93604;-67
2023/07/15 03:32:23;;;;;;;12.40;7.90;;;;;;;15.81;100.00;99963.00;185915;1233;44485;-69
2023/07/15 03:36:26;;;;;;;15.10;11.60;;;;;;;15.87;100.00;99958.88;185991;1233;56986;-68
2023/07/15 03:40:31;;;;;;;15.80;11.00;;;;;;;15.90;100.00;99955.41;185702;1234;46080;-67
2023/07/15 03:44:44;;;;;;;24.20;13.20;;;;;;;15.96;100.00;99949.39;185604;1236;44535;-69
2023/07/15 03:48:46;;;;;;;20.90;9.50;;;;;;;16.09;100.00;99943.95;185994;1234;44668;-69
2023/07/15 03:52:48;;;;;;;29.00;10.90;;;;;;;16.21;100.00;99948.39;186026;1232;43530;-68
2023/07/15 03:56:52;;;;;;;24.00;11.90;;;;;;;16.35;100.00;99946.82;186318;1232;88354;-90
2023/07/15 04:00:55;;;;;;;20.10;12.20;;;;;;;16.55;100.00;99948.98;186367;1234;44549;-87
2023/07/15 04:09:34;;;;;;;21.80;13.30;;;;;;;16.93;100.00;99953.02;186195;1232;93300;-71
2023/07/15 04:13:41;;;;;;;14.80;11.40;;;;;;;17.13;100.00;99953.27;186277;1232;43465;-67
2023/07/15 04:17:43;;;;;;;11.60;9.60;;;;;;;17.42;100.00;99944.07;186410;1232;59636;-67
2023/07/15 04:21:49;;;;;;;14.00;10.40;;;;;;;17.81;100.00;99944.77;186211;1232;43505;-72
2023/07/15 04:25:52;;;;;;;14.90;11.50;;;;;;;18.24;100.00;99940.75;185738;1232;44153;-70
2023/07/15 04:30:03;;;;;;;11.30;9.60;;;;;;;19.10;100.00;99944.42;185550;1232;43717;-72
2023/07/15 04:34:06;;;;;;;11.70;10.00;;;;;;;20.24;100.00;99953.04;185856;1232;43377;-71
2023/07/15 04:38:11;;;;;;;13.10;9.30;;;;;;;21.19;96.53;99953.43;185661;1232;58680;-72
2023/07/15 04:42:15;;;;;;;13.90;9.90;;;;;;;21.81;92.16;99951.95;185622;1232;45318;-70
2023/07/15 04:46:18;;;;;;;9.40;8.00;;;;;;;22.48;88.21;99941.16;185847;1232;45938;-69
2023/07/15 04:50:22;;;;;;;9.80;7.50;;;;;;;23.02;85.01;99940.39;185802;1232;44453;-73
2023/07/15 04:54:29;;;;;;;9.60;7.70;;;;;;;23.68;83.56;99946.09;185564;1232;46071;-71
2023/07/15 04:58:31;;;;;;;12.30;7.50;;;;;;;24.37;79.65;99947.27;185372;1232;58457;-73
2023/07/15 05:02:32;;;;;;;9.30;7.50;;;;;;;24.90;77.06;99944.12;185379;1232;44336;-72
2023/07/15 05:06:50;;;;;;;12.80;7.90;;;;;;;25.28;74.71;99942.27;185467;1232;43482;-72
2023/07/15 05:10:52;;;;;;;8.90;8.00;;;;;;;25.57;74.14;99940.48;185401;1232;45969;-73
2023/07/15 05:14:54;;;;;;;9.40;5.80;;;;;;;25.90;73.69;99937.67;185446;1232;43530;-72
2023/07/15 05:18:56;;;;;;;10.50;6.90;;;;;;;25.92;73.18;99940.23;185481;1232;58381;-72
2023/07/15 05:23:04;;;;;;;14.10;6.30;;;;;;;26.23;72.62;99939.96;185513;1232;43902;-71
2023/07/15 05:43:45;;;;;;;6.00;4.80;;;;;;;27.48;66.75;99939.56;185535;1234;58366;-69
2023/07/15 05:52:23;;;;;;;7.70;6.70;;;;;;;27.94;65.98;99934.35;186181;1232;98987;-73
2023/07/15 05:56:26;;;;;;;12.10;6.90;;;;;;;28.15;64.88;99936.75;186018;1232;44864;-72
2023/07/15 06:04:59;;;;;;;5.20;3.90;;;;;;;27.95;63.12;99926.77;186408;1232;92578;-67
2023/07/15 06:09:02;;;;;;;7.20;5.70;;;;;;;27.76;63.86;99926.48;186232;1232;46022;-74
2023/07/15 06:13:05;;;;;;;9.60;7.60;;;;;;;27.63;65.41;99922.83;186038;1232;43859;-73
2023/07/15 06:17:08;;;;;;;7.50;5.00;;;;;;;27.77;65.76;99922.33;185578;1232;44889;-74
2023/07/15 06:21:09;;;;;;;7.50;4.30;;;;;;;28.16;64.91;99921.73;185565;1232;46010;-72
2023/07/15 06:25:12;;;;;;;7.10;6.10;;;;;;;28.53;63.78;99924.02;185612;1232;58427;-71
2023/07/15 06:29:14;;;;;;;5.60;3.90;;;;;;;28.79;62.49;99922.48;185672;1232;45857;-71
2023/07/15 06:33:17;;;;;;;3.40;2.60;;;;;;;29.18;61.75;99916.98;185505;1236;43789;-72
2023/07/15 06:37:18;;;;;;;5.30;3.70;;;;;;;29.34;60.10;99918.33;185633;1232;45998;-72
2023/07/15 06:41:22;;;;;;;6.30;3.60;;;;;;;29.38;59.44;99916.89;186205;1232;43424;-73
2023/07/15 06:49:54;;;;;;;5.40;3.00;;;;;;;29.41;59.03;99913.20;182218;1234;5004594;-74
2023/07/15 06:54:30;;;;;;;;;;;;;;;;;;;;;
2023/07/15 07:12:58;;;;;;;5.20;3.40;;;;;;;30.37;59.56;99904.81;186505;1233;92379;-75
2023/07/15 07:17:01;;;;;;;32.10;5.60;;;;;;;30.52;60.92;99901.46;186234;1234;43463;-71
2023/07/15 07:21:04;;;;;;;8.80;3.00;;;;;;;30.83;58.70;99893.40;185687;1233;43676;-72
2023/07/15 07:25:06;;;;;;;3.00;2.60;;;;;;;31.10;58.90;99884.11;185801;1235;45905;-74
2023/07/15 07:29:07;;;;;;;8.30;3.00;;;;;;;31.16;57.79;99878.73;185741;1235;58466;-71
2023/07/15 07:33:09;;;;;;;7.50;3.80;;;;;;;31.32;57.18;99875.64;185751;1233;46001;-75
2023/07/15 07:37:11;;;;;;;5.10;3.30;;;;;;;31.57;55.58;99877.70;185882;1235;43698;-72
2023/07/15 07:41:13;;;;;;;4.20;3.40;;;;;;;31.64;55.29;99877.54;185957;1235;45898;-73
2023/07/15 07:45:44;;;;;;;12.30;2.70;;;;;;;31.85;53.73;99878.41;185915;1234;44918;-74
2023/07/15 07:49:46;;;;;;;5.30;2.80;;;;;;;32.08;55.80;99884.02;186222;1234;57541;-72
2023/07/15 07:53:47;;;;;;;5.60;3.40;;;;;;;32.39;56.01;99880.52;185938;1235;43599;-69
2023/07/15 07:57:57;;;;;;;4.90;3.10;;;;;;;32.79;53.24;99871.89;185950;1236;45964;-72
2023/07/15 08:01:58;;;;;;;3.00;2.70;;;;;;;33.07;53.78;99868.41;185936;1233;43543;-77
2023/07/15 08:06:05;;;;;;;4.40;2.70;;;;;;;33.28;54.32;99858.86;185801;1232;45764;-72
2023/07/15 08:10:07;;;;;;;3.00;2.10;;;;;;;33.45;52.13;99855.33;185896;1234;57649;-75
2023/07/15 08:14:09;;;;;;;4.50;2.60;;;;;;;33.46;49.65;99861.98;186042;1234;43950;-77
2023/07/15 08:18:11;;;;;;;3.60;1.70;;;;;;;33.65;50.87;99861.25;185926;1233;43606;-74
2023/07/15 08:22:12;;;;;;;5.30;2.30;;;;;;;33.73;50.01;99863.98;185705;1235;43625;-74
2023/07/15 08:26:14;;;;;;;6.00;3.00;;;;;;;34.11;49.41;99861.83;185753;1233;43515;-73
2023/07/15 08:30:22;;;;;;;2.60;2.00;;;;;;;34.39;47.61;99864.02;185628;1234;58611;-73
2023/07/15 08:34:24;;;;;;;3.70;1.60;;;;;;;34.65;46.30;99858.94;185897;1236;43546;-72
2023/07/15 08:38:25;;;;;;;1.60;1.10;;;;;;;34.72;45.62;99856.35;185896;1234;43692;-69
2023/07/15 08:42:29;;;;;;;4.30;2.20;;;;;;;34.69;44.30;99856.52;185727;1234;43432;-75
2023/07/15 08:46:31;;;;;;;1.50;1.30;;;;;;;34.69;44.14;99856.84;185949;1235;44382;-73
2023/07/15 08:50:37;;;;;;;3.40;1.90;;;;;;;34.68;44.46;99853.20;186087;1234;58488;-74
2023/07/15 08:55:02;;;;;;;2.20;1.40;;;;;;;34.32;45.20;99855.15;185842;1233;44036;-78
2023/07/15 08:59:48;;;;;;;3.50;2.10;;;;;;;34.36;46.51;99856.31;185594;1235;44102;-89
2023/07/15 09:04:12;;;;;;;1.90;1.30;;;;;;;34.47;43.64;99850.71;185013;1238;46082;-90
2023/07/15 09:12:49;;;;;;;2.30;1.80;;;;;;;34.78;44.11;99846.42;185262;1236;57786;-88
2023/07/15 09:17:26;;;;;;;9.80;4.90;;;;;;;34.83;42.94;99846.23;184869;1236;44500;-89
2023/07/15 09:22:26;;;;;;;3.00;1.50;;;;;;;34.55;40.50;99845.61;185452;1240;46073;-87
2023/07/15 09:27:08;;;;;;;4.50;1.70;;;;;;;34.50;41.55;99841.91;185127;1236;45880;-89
2023/07/15 09:32:25;;;;;;;;;;;;;;;;;;;;;
2023/07/15 09:36:32;;;;;;;2.20;1.50;;;;;;;34.70;41.30;99825.34;185074;1237;58876;-87
2023/07/15 09:41:05;;;;;;;2.00;1.40;;;;;;;34.71;42.04;99826.20;184630;1238;44736;-89
2023/07/15 09:45:10;;;;;;;2.40;1.10;;;;;;;34.82;42.82;99823.50;184664;1237;44550;-88
2023/07/15 09:49:59;;;;;;;3.00;1.10;;;;;;;34.83;42.62;99821.94;184580;1237;46136;-88
2023/07/15 09:54:11;;;;;;;2.50;2.30;;;;;;;34.77;40.97;99819.70;185196;1237;45910;-88
2023/07/15 09:58:30;;;;;;;1.80;1.00;;;;;;;34.67;40.56;99818.38;184613;1239;59339;-87
2023/07/15 10:03:23;;;;;;;1.00;0.90;;;;;;;34.57;39.50;99814.92;185425;1237;45865;-88
2023/07/15 10:07:59;;;;;;;3.20;1.00;;;;;;;34.66;41.79;99819.38;185163;1238;44553;-87
2023/07/15 10:12:06;;;;;;;;;;;;;;;34.67;41.50;99823.07;184844;1240;46089;-88
2023/07/15 10:16:13;;;;;;;2.80;0.80;;;;;;;34.59;38.90;99824.90;185036;1238;45862;-89
2023/07/15 10:20:48;;;;;;;2.00;1.30;;;;;;;34.56;38.35;99818.24;184979;1238;60958;-89
2023/07/15 10:25:04;;;;;;;4.30;1.20;;;;;;;34.54;39.73;99819.93;184861;1239;46042;-89
2023/07/15 10:29:07;;;;;;;3.40;1.20;;;;;;;34.54;40.19;99814.91;184277;1238;44252;-89
2023/07/15 10:33:26;;;;;;;4.50;2.30;;;;;;;34.61;41.06;99814.21;185286;1237;44501;-90
2023/07/15 10:42:31;;;;;;;5.20;1.60;;;;;;;34.64;39.54;99817.70;186146;1235;90096;-73
2023/07/15 10:47:23;;;;;;;2.00;1.50;;;;;;;34.64;40.66;99808.48;185985;1235;44582;-89
2023/07/15 10:51:34;;;;;;;1.20;1.00;;;;;;;34.61;41.46;99813.31;185680;1234;44616;-88
2023/07/15 10:56:37;;;;;;;2.80;1.30;;;;;;;34.59;39.72;99812.69;185496;1233;44776;-89
2023/07/15 11:01:15;;;;;;;3.10;1.20;;;;;;;34.58;37.92;99807.13;185627;1233;44072;-89
2023/07/15 11:05:43;;;;;;;2.00;1.30;;;;;;;34.51;41.38;99803.26;185968;1236;60550;-85
2023/07/15 11:20:13;;;;;;;4.00;1.70;;;;;;;34.68;39.45;99790.80;185772;1235;44522;-90
2023/07/15 11:28:52;;;;;;;20.10;3.70;;;;;;;34.68;41.26;99783.89;185133;1239;62053;-89
2023/07/15 11:37:46;;;;;;;2.30;1.20;;;;;;;35.04;40.86;99782.04;185559;1236;45864;-87
2023/07/15 12:05:52;;;;;;;;;;;;;;;;;;;;;
2023/07/15 12:33:42;;;;;;;1.50;1.10;;;;;;;35.81;38.41;99740.41;186006;1234;45875;-85
2023/07/15 12:37:46;;;;;;;3.10;1.10;;;;;;;35.95;38.23;99734.76;185448;1235;59445;-89
2023/07/15 12:46:35;;;;;;;1.30;1.10;;;;;;;36.00;37.32;99717.88;185934;1239;46015;-88
2023/07/15 12:51:33;;;;;;;9.30;2.30;;;;;;;35.97;40.53;99712.64;185580;1235;91036;-70
2023/07/15 12:55:46;;;;;;;1.60;1.40;;;;;;;35.98;39.82;99713.44;185725;1234;91050;-70
2023/07/15 12:59:48;;;;;;;2.20;1.50;;;;;;;36.03;39.61;99715.90;185594;1234;59059;-69
2023/07/15 13:03:49;;;;;;;2.80;1.00;;;;;;;36.06;38.58;99714.35;185886;1235;45112;-68
2023/07/15 13:08:47;;;;;;;1.40;1.20;;;;;;;36.12;39.12;99713.27;185928;1235;43528;-69
2023/07/15 13:22:14;;;;;;;2.90;2.20;;;;;;;36.10;38.46;99702.56;185929;1233;88621;-68
2023/07/15 13:35:56;;;;;;;3.90;1.60;;;;;;;36.05;39.98;99708.77;186451;1234;91365;-70
2023/07/15 13:40:09;;;;;;;4.00;1.40;;;;;;;36.17;38.16;99698.50;186763;1233;43294;-71
2023/07/15 13:44:51;;;;;;;3.80;1.20;;;;;;;36.35;39.35;99698.83;185974;1234;90725;-69
2023/07/15 13:49:12;;;;;;;4.10;2.20;;;;;;;36.44;39.03;99694.63;185656;1234;43457;-70
2023/07/15 13:53:13;;;;;;;1.60;1.50;;;;;;;36.47;38.67;99684.65;186005;1234;43739;-69
2023/07/15 13:57:17;;;;;;;1.60;1.20;;;;;;;36.54;38.82;99688.82;185902;1234;43590;-70
2023/07/15 14:15:45;;;;;;;3.10;1.80;;;;;;;36.89;39.08;99678.38;186467;1231;91666;-68
2023/07/15 14:34:07;;;;;;;1.50;1.40;;;;;;;36.91;37.05;99656.63;186483;1235;92874;-71
2023/07/15 14:42:44;;;;;;;2.40;1.90;;;;;;;36.86;37.97;99653.58;186064;1233;87794;-69
2023/07/15 15:34:39;;;;;;;1.60;1.30;;;;;;;36.92;37.65;99618.01;186390;1231;97797;31
2023/07/15 15:39:14;;;;;;;1.70;1.10;;;;;;;36.95;36.77;99614.17;186268;1232;91915;31
2023/07/15 15:52:27;;;;;;;2.00;1.10;;;;;;;37.01;36.24;99609.52;186315;1231;44189;31
2023/07/15 16:01:36;;;;;;;1.40;1.30;;;;;;;36.98;36.26;99604.23;186298;1235;57807;31
2023/07/15 16:43:55;;;;;;;2.30;1.20;;;;;;;36.19;37.57;99598.25;186625;1234;92177;-62
2023/07/15 16:48:12;;;;;;;2.80;1.20;;;;;;;36.00;37.54;99596.02;186081;1233;58949;-62
2023/07/15 16:52:21;;;;;;;1.50;1.10;;;;;;;35.87;38.43;99600.98;186556;1232;44907;-62
2023/07/15 16:56:54;;;;;;;1.90;1.20;;;;;;;35.63;38.46;99603.67;186270;1233;90343;-62
2023/07/15 17:00:59;;;;;;;6.10;1.40;;;;;;;35.33;37.84;99604.29;185766;1232;44916;-62
2023/07/15 17:05:16;;;;;;;4.00;2.80;;;;;;;35.15;37.57;99606.55;185747;1234;44683;-64
2023/07/15 17:09:17;;;;;;;7.80;1.60;;;;;;;35.03;38.35;99601.38;185779;1233;58415;-64
2023/07/15 17:13:19;;;;;;;1.70;0.90;;;;;;;34.89;38.34;99600.52;185748;1234;43695;-64
2023/07/15 17:17:21;;;;;;;3.00;2.10;;;;;;;34.75;39.46;99600.02;185797;1233;44876;-64
2023/07/15 17:21:23;;;;;;;4.70;1.90;;;;;;;34.62;39.41;99596.46;185713;1233;46084;-64
2023/07/15 17:25:25;;;;;;;2.70;2.40;;;;;;;34.49;40.30;99594.63;185755;1234;43475;-64
2023/07/15 17:29:26;;;;;;;3.00;2.60;;;;;;;34.35;40.41;99595.30;185798;1234;58521;-64
2023/07/15 17:33:28;;;;;;;4.30;2.20;;;;;;;34.21;40.56;99597.41;185809;1233;45968;-64
2023/07/15 17:37:45;;;;;;;5.10;2.40;;;;;;;34.09;40.94;99595.34;185825;1233;43889;-64
2023/07/15 17:41:47;;;;;;;5.20;3.30;;;;;;;33.97;41.19;99590.54;185740;1233;46048;-64
2023/07/15 17:45:50;;;;;;;4.50;1.90;;;;;;;33.84;42.24;99590.02;185827;1233;43510;-64
2023/07/15 17:49:52;;;;;;;3.60;1.80;;;;;;;33.61;43.14;99591.68;185512;1233;58611;-65
2023/07/15 17:54:05;;;;;;;2.30;1.80;;;;;;;33.39;42.94;99587.09;185787;1233;43637;-65
2023/07/15 17:58:06;;;;;;;3.70;2.10;;;;;;;33.17;43.43;99591.89;185740;1233;44835;-65
2023/07/15 18:02:09;;;;;;;2.10;1.60;;;;;;;32.99;45.53;99592.81;185867;1234;43772;-65
2023/07/15 18:06:23;;;;;;;;;;;;;;;32.72;44.90;99598.53;185824;1234;43520;-64
2023/07/15 18:10:36;;;;;;;2.90;1.70;;;;;;;32.52;45.24;99597.08;185853;1232;57068;-65
2023/07/15 18:14:38;;;;;;;6.20;2.20;;;;;;;32.34;45.36;99598.70;186064;1232;43440;-66
2023/07/15 18:18:49;;;;;;;2.50;1.50;;;;;;;32.20;46.38;99601.02;185913;1233;43497;-66
2023/07/15 18:22:51;;;;;;;2.70;1.80;;;;;;;32.00;47.50;99601.66;185837;1233;44484;-65
2023/07/15 18:26:53;;;;;;;1.70;1.30;;;;;;;31.83;45.57;99599.08;185892;1233;43439;-66
2023/07/15 18:30:57;;;;;;;3.60;1.80;;;;;;;31.67;43.89;99592.21;185995;1234;57692;-65
2023/07/15 18:34:59;;;;;;;1.80;1.00;;;;;;;31.50;45.85;99603.14;185925;1236;43474;-65
2023/07/15 18:44:45;;;;;;;4.00;1.60;;;;;;;30.91;47.81;99610.20;186470;1233;43491;-62
2023/07/15 18:53:59;;;;;;;4.20;1.70;;;;;;;30.39;46.55;99602.77;186053;1235;94757;-62
2023/07/15 19:03:08;;;;;;;3.60;2.40;;;;;;;29.71;49.98;99600.77;186289;1233;90814;-63
2023/07/15 19:16:50;;;;;;;5.90;3.20;;;;;;;28.90;52.62;99596.41;186548;1235;91063;-64
2023/07/15 19:21:10;;;;;;;3.20;1.90;;;;;;;28.59;52.22;99598.55;186754;1232;91753;-63
2023/07/15 19:25:12;;;;;;;5.30;2.00;;;;;;;28.38;51.82;99594.77;185745;1232;57756;-63
2023/07/15 19:29:14;;;;;;;6.80;2.40;;;;;;;28.23;52.01;99593.34;186070;1234;43501;-64
2023/07/15 19:33:16;;;;;;;5.70;1.60;;;;;;;28.09;52.54;99592.60;186080;1234;45883;-64
2023/07/15 19:37:17;;;;;;;3.80;1.60;;;;;;;27.96;53.18;99589.86;186136;1232;45707;-64
2023/07/15 19:41:19;;;;;;;2.40;2.10;;;;;;;27.76;55.42;99588.23;185974;1233;44586;-64
2023/07/15 19:45:20;;;;;;;4.20;2.00;;;;;;;27.45;56.74;99589.95;185938;1233;57176;-64
2023/07/15 19:49:22;;;;;;;2.30;2.10;;;;;;;27.25;55.51;99591.30;185959;1234;43432;-63
2023/07/15 19:53:23;;;;;;;3.80;1.60;;;;;;;27.15;57.09;99594.11;185662;1233;45900;-63
2023/07/15 19:57:52;;;;;;;3.40;1.90;;;;;;;26.99;59.08;99591.73;185695;1236;43672;-63
2023/07/15 20:01:58;;;;;;;4.20;2.10;;;;;;;26.78;60.04;99587.10;185871;1236;45910;-64
2023/07/15 20:05:59;;;;;;;2.60;2.00;;;;;;;26.61;60.48;99585.42;185889;1234;58429;-63
2023/07/15 20:10:02;;;;;;;4.70;3.00;;;;;;;26.35;61.84;99585.51;185859;1233;45246;-64
2023/07/15 20:14:04;;;;;;;4.10;3.20;;;;;;;26.10;62.96;99585.95;185862;1234;45849;-64
2023/07/15 20:18:06;;;;;;;4.10;2.30;;;;;;;25.85;64.53;99588.45;185996;1234;43521;-62
2023/07/15 20:22:12;;;;;;;3.60;3.30;;;;;;;25.64;65.45;99596.98;185872;1234;43443;-65
2023/07/15 20:26:25;;;;;;;7.40;3.90;;;;;;;25.46;66.38;99592.04;186104;1234;58338;-63
2023/07/15 20:30:27;;;;;;;6.60;3.80;;;;;;;25.37;66.84;99593.17;185898;1233;44818;-63
2023/07/15 20:34:41;;;;;;;13.90;4.00;;;;;;;25.31;67.79;99593.09;185971;1233;43568;-61
2023/07/15 20:38:42;;;;;;;8.20;5.30;;;;;;;25.33;67.76;99590.86;185985;1234;43595;-61
2023/07/15 20:42:44;;;;;;;5.40;3.60;;;;;;;25.31;67.61;99594.13;185912;1234;43689;-60
2023/07/15 20:46:47;;;;;;;9.00;4.20;;;;;;;25.25;69.38;99596.89;185963;1234;58168;-61
2023/07/15 20:50:51;;;;;;;10.70;5.30;;;;;;;25.20;69.93;99598.16;185887;1234;45931;-60
2023/07/15 20:55:18;;;;;;;4.10;3.60;;;;;;;25.13;70.96;99596.79;185756;1234;43498;-65
2023/07/15 20:59:20;;;;;;;5.60;3.80;;;;;;;25.04;71.26;99599.35;185605;1236;43491;-64
2023/07/15 21:04:14;;;;;;;5.00;2.80;;;;;;;24.95;71.70;99601.43;185966;1234;43620;-66
2023/07/15 21:08:16;;;;;;;7.50;3.60;;;;;;;24.86;71.84;99600.89;185955;1233;58428;-67
2023/07/15 21:12:17;;;;;;;5.60;3.40;;;;;;;24.81;72.00;99600.36;185826;1234;45799;-67
2023/07/15 21:16:19;;;;;;;6.10;3.30;;;;;;;24.67;73.64;99607.89;185966;1234;43480;-67
2023/07/15 21:20:31;;;;;;;6.90;4.20;;;;;;;24.50;74.87;99606.71;185991;1234;45903;-67
2023/07/15 21:24:32;;;;;;;5.70;3.00;;;;;;;24.36;74.65;99609.82;185870;1234;43522;-66
2023/07/15 21:28:39;;;;;;;3.80;3.50;;;;;;;24.32;74.92;99609.38;185961;1234;59026;-62
2023/07/15 21:32:49;;;;;;;4.00;2.90;;;;;;;24.29;75.15;99608.67;186053;1232;43932;-67
2023/07/15 21:36:51;;;;;;;5.00;2.80;;;;;;;24.19;76.75;99606.66;185941;1235;44799;-66
2023/07/15 21:40:53;;;;;;;5.60;3.30;;;;;;;24.06;76.80;99606.57;185861;1234;44694;-68
2023/07/15 21:45:02;;;;;;;3.40;3.00;;;;;;;23.93;77.96;99606.21;186028;1234;44824;-66
2023/07/15 21:49:03;;;;;;;3.60;3.30;;;;;;;23.85;78.36;99606.75;185914;1232;57218;-68
2023/07/15 21:53:05;;;;;;;7.20;4.10;;;;;;;23.80;78.91;99609.88;186114;1235;43903;-68
2023/07/15 21:57:10;;;;;;;7.00;4.10;;;;;;;23.76;78.79;99606.95;186021;1234;43873;-65
2023/07/15 22:01:13;;;;;;;36.20;29.50;;;;;;;23.75;78.91;99600.60;185945;1232;43631;-68
2023/07/15 22:06:09;;;;;;;34.00;22.70;;;;;;;23.71;79.47;99596.11;185889;1232;43785;-66
2023/07/15 22:10:11;;;;;;;7.90;4.70;;;;;;;23.66;79.57;99588.42;185871;1234;58404;-67
2023/07/15 22:14:12;;;;;;;7.00;5.10;;;;;;;23.58;80.38;99591.53;185883;1234;43563;-66
2023/07/15 22:18:40;;;;;;;10.20;6.60;;;;;;;23.44;81.24;99586.95;185896;1233;45931;-67
2023/07/15 22:22:43;;;;;;;8.80;4.60;;;;;;;23.33;81.66;99591.00;185914;1233;45124;-65
2023/07/15 22:27:37;;;;;;;9.20;5.60;;;;;;;23.28;82.00;99587.05;185907;1234;45956;-67
2023/07/15 22:31:38;;;;;;;8.50;6.50;;;;;;;23.26;82.37;99579.82;185869;1236;58335;-65
2023/07/15 22:35:44;;;;;;;10.20;7.20;;;;;;;23.26;81.93;99573.64;185754;1232;87047;-84
2023/07/15 22:39:46;;;;;;;7.70;5.30;;;;;;;23.28;81.93;99571.73;183913;1234;45966;-88
2023/07/15 22:43:48;;;;;;;9.10;6.20;;;;;;;23.23;82.07;99567.47;183759;1233;46069;-88
2023/07/15 22:47:50;;;;;;;29.00;7.60;;;;;;;23.20;81.90;99568.89;183560;1234;45990;-89
2023/07/15 22:51:52;;;;;;;7.70;5.60;;;;;;;23.17;81.64;99572.38;183519;1233;58060;-89
2023/07/15 22:55:55;;;;;;;8.30;6.30;;;;;;;23.22;81.75;99568.52;183865;1236;46042;-89
2023/07/15 22:59:57;;;;;;;8.10;6.80;;;;;;;23.22;82.12;99561.67;183315;1234;45188;-90
2023/07/15 23:03:59;;;;;;;13.60;7.20;;;;;;;23.20;82.54;99564.45;183589;1234;46014;-89
2023/07/15 23:08:01;;;;;;;18.90;8.10;;;;;;;23.16;82.58;99560.63;185136;1233;44029;-90
2023/07/15 23:12:03;;;;;;;8.40;6.90;;;;;;;23.17;82.07;99555.89;185784;1234;58434;-88
2023/07/15 23:16:05;;;;;;;10.10;7.00;;;;;;;23.19;82.01;99548.27;185949;1233;43909;-89
2023/07/15 23:20:25;;;;;;;6.60;5.70;;;;;;;23.17;82.38;99553.48;183683;1233;45947;-89
2023/07/15 23:24:27;;;;;;;7.60;5.70;;;;;;;23.12;82.72;99544.31;183676;1233;44739;-89
2023/07/15 23:28:29;;;;;;;12.50;7.90;;;;;;;23.10;83.15;99534.33;183015;1235;46009;-88
2023/07/15 23:32:31;;;;;;;10.80;6.70;;;;;;;23.08;83.26;99533.43;183171;1234;59322;-88
2023/07/15 23:36:33;;;;;;;7.60;6.90;;;;;;;23.05;83.45;99531.88;183625;1232;46171;-89
2023/07/15 23:40:35;;;;;;;12.40;8.30;;;;;;;22.99;83.77;99531.57;183098;1235;45285;-90
2023/07/15 23:44:40;;;;;;;11.20;8.20;;;;;;;22.90;84.66;99532.39;183200;1237;46644;-89
2023/07/15 23:48:47;;;;;;;12.60;9.20;;;;;;;22.82;85.06;99531.89;183198;1234;46023;-89
2023/07/15 23:52:48;;;;;;;14.20;10.60;;;;;;;22.77;85.76;99529.73;182742;1234;58113;-88
2023/07/15 23:56:50;;;;;;;13.80;9.30;;;;;;;22.72;86.42;99531.20;182631;1234;46402;-88
